Camano Island, Washington
Current Conditions -  °F | °C
As of 4:56 AM on Friday 28 Nov 2014 (Local Time) from KNUW Reporting Station
Light Rain Light Rain  
Wind Chill: 51°   Ceiling: 2000
Heat Index: 51°   Visibility: 8mi
Dew Point: 47°   Wind: 15mph
Humidity: 86%   Direction: 230°SW
Pressure: 29.55"   Gusts: NA
Location:  48.16°N, 122.49°W
Report Text: KNUW 281256Z 23013KT 8SM -RA SCT010 BKN020 OVC040 11/08 A2955 RMK AO2 SLP011 P0003 T01060083 $
Loading
Personal Weather Stations






























Interactive Weather Map New forecast layout! Learn more

10-Day Weather Forecast

Advertisements
Track Severe Weather on mobile